Time;durP1;ratioP1;P1;durP2;ratioP2;P2;SDS_P1;SDS_P2;PMS_P1;PMS_P2;Temp;Humidity;BMP_temperature;BMP_pressure;BME280_temperature;BME280_humidity;BME280_pressure;Samples;Min_cycle;Max_cycle;Signal;HPM_P1;HPM_P2
2022/02/28 00:01:35;;;;;;;;;;;;;;;;;;5034413;28;19944;-68
2022/02/28 00:04:01;;;;;;;;;;;;;;;;;;5033995;28;19971;-68
2022/02/28 00:06:27;;;;;;;;;;;;;;;;;;5034464;28;19913;-68
2022/02/28 00:08:53;;;;;;;;;;;;;;;;;;5034292;28;19954;-68
2022/02/28 00:11:19;;;;;;;;;;;;;;;;;;5034034;28;19913;-68
2022/02/28 00:13:45;;;;;;;;;;;;;;;;;;5016614;28;19916;-68
2022/02/28 00:16:11;;;;;;;;;;;;;;;;;;5034300;28;20385;-68
2022/02/28 00:18:37;;;;;;;;;;;;;;;;;;5033837;28;19999;-68
2022/02/28 00:21:03;;;;;;;;;;;;;;;;;;5034088;28;19976;-68
2022/02/28 00:23:29;;;;;;;;;;;;;;;;;;5034207;28;19913;-68
2022/02/28 00:25:55;;;;;;;;;;;;;;;;;;5033708;28;19963;-68
2022/02/28 00:28:21;;;;;;;;;;;;;;;;;;5034318;28;20292;-68
2022/02/28 00:30:47;;;;;;;;;;;;;;;;;;5033968;28;19916;-68
2022/02/28 00:33:13;;;;;;;;;;;;;;;;;;5033592;28;19909;-68
2022/02/28 00:35:39;;;;;;;;;;;;;;;;;;5033897;28;19963;-68
2022/02/28 00:38:05;;;;;;;;;;;;;;;;;;5033847;28;19952;-68
2022/02/28 00:40:31;;;;;;;;;;;;;;;;;;5033454;28;19909;-68
2022/02/28 00:42:57;;;;;;;;;;;;;;;;;;5033673;28;19921;-68
2022/02/28 00:45:23;;;;;;;;;;;;;;;;;;5033684;28;20004;-68
2022/02/28 00:47:49;;;;;;;;;;;;;;;;;;5033407;28;19913;-68
2022/02/28 00:50:15;;;;;;;;;;;;;;;;;;5034151;28;20411;-68
2022/02/28 00:52:41;;;;;;;;;;;;;;;;;;5033400;28;19916;-69
2022/02/28 00:55:07;;;;;;;;;;;;;;;;;;5033522;28;20282;-69
2022/02/28 00:57:33;;;;;;;;;;;;;;;;;;5033762;28;19956;-69
2022/02/28 00:59:58;;;;;;;;;;;;;;;;;;5033287;28;19920;-69
2022/02/28 01:02:24;;;;;;;;;;;;;;;;;;5033618;28;19932;-68
2022/02/28 01:04:50;;;;;;;;;;;;;;;;;;5033567;28;19965;-68
2022/02/28 01:07:16;;;;;;;;;;;;;;;;;;5033141;28;19953;-68
2022/02/28 01:09:42;;;;;;;;;;;;;;;;;;5033592;28;19909;-68
2022/02/28 01:12:08;;;;;;;;;;;;;;;;;;5033524;28;20377;-69
2022/02/28 01:14:34;;;;;;;;;;;;;;;;;;5033092;28;19909;-68
2022/02/28 01:17:00;;;;;;;;;;;;;;;;;;5033430;28;19923;-68
2022/02/28 01:19:26;;;;;;;;;;;;;;;;;;5033467;28;20336;-69
2022/02/28 01:21:52;;;;;;;;;;;;;;;;;;5033179;28;19909;-68
2022/02/28 01:24:18;;;;;;;;;;;;;;;;;;5033384;28;19921;-68
2022/02/28 01:26:45;;;;;;;;;;;;;;;;;;5033544;28;19947;-68
2022/02/28 01:29:11;;;;;;;;;;;;;;;;;;5033070;28;19964;-68
2022/02/28 01:31:37;;;;;;;;;;;;;;;;;;5033449;28;20365;-69
2022/02/28 01:34:03;;;;;;;;;;;;;;;;;;5033366;28;19909;-69
2022/02/28 01:36:29;;;;;;;;;;;;;;;;;;5032993;28;20329;-68
2022/02/28 01:38:55;;;;;;;;;;;;;;;;;;5033461;28;19996;-68
2022/02/28 01:41:21;;;;;;;;;;;;;;;;;;5033302;28;19932;-69
2022/02/28 01:43:47;;;;;;;;;;;;;;;;;;5032775;28;19922;-69
2022/02/28 01:46:13;;;;;;;;;;;;;;;;;;5033223;28;19910;-69
2022/02/28 01:48:39;;;;;;;;;;;;;;;;;;5015891;28;19983;-69
2022/02/28 01:51:05;;;;;;;;;;;;;;;;;;5032861;28;19963;-69
2022/02/28 01:53:31;;;;;;;;;;;;;;;;;;5033366;28;19909;-68
2022/02/28 01:55:57;;;;;;;;;;;;;;;;;;5033012;28;20254;-69
2022/02/28 01:58:23;;;;;;;;;;;;;;;;;;5033292;28;19909;-69
2022/02/28 02:00:49;;;;;;;;;;;;;;;;;;5033167;28;19917;-69
2022/02/28 02:03:15;;;;;;;;;;;;;;;;;;5032719;28;20285;-68
2022/02/28 02:05:41;;;;;;;;;;;;;;;;;;5033378;28;20392;-68
2022/02/28 02:08:07;;;;;;;;;;;;;;;;;;5035026;28;19909;-68
2022/02/28 02:10:33;;;;;;;;;;;;;;;;;;5018534;28;19916;-69
2022/02/28 02:12:59;;;;;;;;;;;;;;;;;;5036539;28;20003;-69
2022/02/28 02:15:25;;;;;;;;;;;;;;;;;;5036615;28;19909;-68
2022/02/28 02:17:51;;;;;;;;;;;;;;;;;;5035972;28;19956;-68
2022/02/28 02:20:17;;;;;;;;;;;;;;;;;;5036427;28;19909;-69
2022/02/28 02:22:43;;;;;;;;;;;;;;;;;;5036392;28;20332;-68
2022/02/28 02:25:09;;;;;;;;;;;;;;;;;;5035903;28;19924;-69
2022/02/28 02:27:35;;;;;;;;;;;;;;;;;;5036315;28;19910;-69
2022/02/28 02:30:01;;;;;;;;;;;;;;;;;;5036198;28;20268;-68
2022/02/28 02:32:27;;;;;;;;;;;;;;;;;;5035868;28;19963;-69
2022/02/28 02:34:53;;;;;;;;;;;;;;;;;;5036068;28;19948;-69
2022/02/28 02:37:19;;;;;;;;;;;;;;;;;;5018270;28;19963;-69
2022/02/28 02:39:45;;;;;;;;;;;;;;;;;;5017810;28;19953;-69
2022/02/28 02:42:11;;;;;;;;;;;;;;;;;;5035752;28;19909;-68
2022/02/28 02:44:37;;;;;;;;;;;;;;;;;;5036096;28;19917;-69
2022/02/28 02:47:03;;;;;;;;;;;;;;;;;;5017856;28;19959;-69
2022/02/28 02:49:30;;;;;;;;;;;;;;;;;;5035821;28;19909;-69
2022/02/28 02:51:56;;;;;;;;;;;;;;;;;;5035809;28;20000;-69
2022/02/28 02:54:22;;;;;;;;;;;;;;;;;;5035346;28;20350;-68
2022/02/28 02:56:48;;;;;;;;;;;;;;;;;;5018138;28;19920;-69
2022/02/28 02:59:14;;;;;;;;;;;;;;;;;;5035313;28;20361;-69
2022/02/28 03:01:40;;;;;;;;;;;;;;;;;;5035648;28;19913;-69
2022/02/28 03:04:06;;;;;;;;;;;;;;;;;;5035521;28;19917;-68
2022/02/28 03:06:34;;;;;;;;;;;;;;;;;;5035136;28;20281;-68
2022/02/28 03:09:00;;;;;;;;;;;;;;;;;;5035597;28;20419;-68
2022/02/28 03:11:26;;;;;;;;;;;;;;;;;;5035494;28;19913;-68
2022/02/28 03:13:52;;;;;;;;;;;;;;;;;;5035047;28;19940;-68
2022/02/28 03:16:18;;;;;;;;;;;;;;;;;;5017612;28;19920;-68
2022/02/28 03:18:44;;;;;;;;;;;;;;;;;;5035229;28;19909;-68
2022/02/28 03:21:10;;;;;;;;;;;;;;;;;;5034857;28;20384;-68
2022/02/28 03:23:36;;;;;;;;;;;;;;;;;;5035533;28;19927;-68
2022/02/28 03:26:02;;;;;;;;;;;;;;;;;;5035185;28;20370;-69
2022/02/28 03:28:28;;;;;;;;;;;;;;;;;;5034733;28;19920;-69
2022/02/28 03:30:54;;;;;;;;;;;;;;;;;;5017402;28;19944;-68
2022/02/28 03:33:20;;;;;;;;;;;;;;;;;;5035007;28;19909;-68
2022/02/28 03:35:46;;;;;;;;;;;;;;;;;;5034774;28;20383;-68
2022/02/28 03:38:12;;;;;;;;;;;;;;;;;;5017121;28;19909;-68
2022/02/28 03:40:38;;;;;;;;;;;;;;;;;;5034873;28;20385;-68
2022/02/28 03:43:06;;;;;;;;;;;;;;;;;;5034273;28;19921;-69
2022/02/28 03:45:32;;;;;;;;;;;;;;;;;;5034701;28;19917;-68
2022/02/28 03:47:58;;;;;;;;;;;;;;;;;;5034756;28;19913;-68
2022/02/28 03:50:24;;;;;;;;;;;;;;;;;;5034378;28;20392;-68
2022/02/28 03:52:50;;;;;;;;;;;;;;;;;;5034749;28;19910;-68
2022/02/28 03:55:16;;;;;;;;;;;;;;;;;;5016958;28;19916;-68
2022/02/28 03:57:42;;;;;;;;;;;;;;;;;;5034227;28;19910;-69
2022/02/28 04:00:08;;;;;;;;;;;;;;;;;;5034658;28;19917;-69
2022/02/28 04:02:34;;;;;;;;;;;;;;;;;;5034142;28;19916;-68
2022/02/28 04:05:00;;;;;;;;;;;;;;;;;;5034389;28;19924;-68
2022/02/28 04:07:26;;;;;;;;;;;;;;;;;;5034476;28;19924;-68
2022/02/28 04:09:52;;;;;;;;;;;;;;;;;;5033962;28;20247;-68
2022/02/28 04:12:18;;;;;;;;;;;;;;;;;;5034176;28;19913;-69
2022/02/28 04:14:45;;;;;;;;;;;;;;;;;;5016423;28;20281;-69
2022/02/28 04:17:11;;;;;;;;;;;;;;;;;;5034011;28;19909;-69
2022/02/28 04:19:37;;;;;;;;;;;;;;;;;;5034243;28;19916;-68
2022/02/28 04:22:03;;;;;;;;;;;;;;;;;;5034178;28;20281;-69
2022/02/28 04:24:29;;;;;;;;;;;;;;;;;;5033742;28;19971;-68
2022/02/28 04:26:55;;;;;;;;;;;;;;;;;;5034229;28;20000;-68
2022/02/28 04:29:21;;;;;;;;;;;;;;;;;;5034051;28;19940;-68
2022/02/28 04:31:47;;;;;;;;;;;;;;;;;;5033159;28;19955;-68
2022/02/28 04:34:14;;;;;;;;;;;;;;;;;;5034030;28;19917;-68
2022/02/28 04:36:40;;;;;;;;;;;;;;;;;;5033891;28;19909;-68
2022/02/28 04:39:06;;;;;;;;;;;;;;;;;;5033532;28;20341;-68
2022/02/28 04:41:32;;;;;;;;;;;;;;;;;;5033872;28;19955;-68
2022/02/28 04:43:58;;;;;;;;;;;;;;;;;;5033686;28;19921;-68
2022/02/28 04:46:24;;;;;;;;;;;;;;;;;;5033420;28;20004;-69
2022/02/28 04:48:50;;;;;;;;;;;;;;;;;;5033823;28;20423;-68
2022/02/28 04:51:15;;;;;;;;;;;;;;;;;;5033742;28;19909;-68
2022/02/28 04:53:42;;;;;;;;;;;;;;;;;;5033333;28;19909;-68
2022/02/28 04:56:08;;;;;;;;;;;;;;;;;;5033876;28;19916;-68
2022/02/28 04:58:34;;;;;;;;;;;;;;;;;;5016224;28;19915;-69
2022/02/28 05:01:00;;;;;;;;;;;;;;;;;;5033202;28;19945;-72
2022/02/28 05:03:26;;;;;;;;;;;;;;;;;;5033635;28;20373;-70
2022/02/28 05:05:52;;;;;;;;;;;;;;;;;;5015504;28;19910;-69
2022/02/28 05:08:18;;;;;;;;;;;;;;;;;;5033897;28;19960;-70
2022/02/28 05:10:44;;;;;;;;;;;;;;;;;;5034032;28;19971;-69
2022/02/28 05:13:10;;;;;;;;;;;;;;;;;;5033175;28;19913;-69
2022/02/28 05:15:36;;;;;;;;;;;;;;;;;;5015877;28;19909;-69
2022/02/28 05:18:02;;;;;;;;;;;;;;;;;;5033549;28;19913;-69
2022/02/28 05:20:28;;;;;;;;;;;;;;;;;;5033153;28;19917;-69
2022/02/28 05:22:54;;;;;;;;;;;;;;;;;;5033781;28;20320;-70
2022/02/28 05:25:20;;;;;;;;;;;;;;;;;;5033423;28;20008;-69
2022/02/28 05:27:46;;;;;;;;;;;;;;;;;;5033039;28;19963;-69
2022/02/28 05:30:12;;;;;;;;;;;;;;;;;;5033401;28;19972;-69
2022/02/28 05:32:40;;;;;;;;;;;;;;;;;;5033231;28;20348;-71
2022/02/28 05:35:06;;;;;;;;;;;;;;;;;;5032949;28;19909;-75
2022/02/28 05:37:32;;;;;;;;;;;;;;;;;;5033151;28;19924;-75
2022/02/28 05:39:58;;;;;;;;;;;;;;;;;;5033233;28;20320;-75
2022/02/28 05:42:24;;;;;;;;;;;;;;;;;;5033556;28;20358;-75
2022/02/28 05:44:50;;;;;;;;;;;;;;;;;;5037359;28;19932;-75
2022/02/28 05:47:16;;;;;;;;;;;;;;;;;;5037113;28;20211;-75
2022/02/28 05:49:42;;;;;;;;;;;;;;;;;;5036657;28;20003;-74
2022/02/28 05:52:08;;;;;;;;;;;;;;;;;;5036972;28;19971;-75
2022/02/28 05:54:34;;;;;;;;;;;;;;;;;;5036845;28;20258;-74
2022/02/28 05:57:00;;;;;;;;;;;;;;;;;;5018554;28;19912;-76
2022/02/28 05:59:26;;;;;;;;;;;;;;;;;;5037402;28;20407;-75
2022/02/28 06:01:52;;;;;;;;;;;;;;;;;;5036795;28;19996;-75
2022/02/28 06:04:18;;;;;;;;;;;;;;;;;;5033961;28;20268;-74
2022/02/28 06:06:44;;;;;;;;;;;;;;;;;;5030904;28;19909;-74
2022/02/28 06:09:10;;;;;;;;;;;;;;;;;;5033299;28;19920;-77
2022/02/28 06:11:36;;;;;;;;;;;;;;;;;;5035160;28;19921;-74
2022/02/28 06:14:02;;;;;;;;;;;;;;;;;;5035708;28;20370;-71
2022/02/28 06:16:28;;;;;;;;;;;;;;;;;;5034776;28;19920;-72
2022/02/28 06:18:54;;;;;;;;;;;;;;;;;;5018058;28;19909;-72
2022/02/28 06:21:20;;;;;;;;;;;;;;;;;;5034923;28;19909;-70
2022/02/28 06:23:46;;;;;;;;;;;;;;;;;;5034942;28;19964;-70
2022/02/28 06:26:12;;;;;;;;;;;;;;;;;;5033960;28;20378;-69
2022/02/28 06:28:38;;;;;;;;;;;;;;;;;;5033334;28;19920;-69
2022/02/28 06:31:04;;;;;;;;;;;;;;;;;;5029658;28;20395;-69
2022/02/28 06:33:30;;;;;;;;;;;;;;;;;;5032341;28;19913;-70
2022/02/28 06:35:56;;;;;;;;;;;;;;;;;;5033412;28;19951;-71
2022/02/28 06:38:22;;;;;;;;;;;;;;;;;;5033511;28;20330;-72
2022/02/28 06:40:48;;;;;;;;;;;;;;;;;;5035274;28;20464;-72
2022/02/28 06:43:14;;;;;;;;;;;;;;;;;;5034285;28;19968;-71
2022/02/28 06:45:40;;;;;;;;;;;;;;;;;;5035006;28;19918;-71
2022/02/28 06:48:06;;;;;;;;;;;;;;;;;;5035297;28;19917;-71
2022/02/28 06:50:32;;;;;;;;;;;;;;;;;;5035348;28;19909;-70
2022/02/28 06:52:58;;;;;;;;;;;;;;;;;;5016775;28;20287;-73
2022/02/28 06:55:24;;;;;;;;;;;;;;;;;;5035243;28;19931;-72
2022/02/28 06:57:50;;;;;;;;;;;;;;;;;;5034818;28;19931;-71
2022/02/28 07:00:16;;;;;;;;;;;;;;;;;;5034313;28;19913;-72
2022/02/28 07:02:42;;;;;;;;;;;;;;;;;;5034916;28;19916;-70
2022/02/28 07:05:08;;;;;;;;;;;;;;;;;;5034906;28;19924;-72
2022/02/28 07:07:34;;;;;;;;;;;;;;;;;;5034492;28;20316;-70
2022/02/28 07:10:00;;;;;;;;;;;;;;;;;;5034660;28;19910;-71
2022/02/28 07:12:25;;;;;;;;;;;;;;;;;;5033637;28;19939;-70
2022/02/28 07:14:51;;;;;;;;;;;;;;;;;;5034538;28;20055;-73
2022/02/28 07:17:17;;;;;;;;;;;;;;;;;;5034476;28;20427;-76
2022/02/28 07:19:43;;;;;;;;;;;;;;;;;;5033914;28;19912;-72
2022/02/28 07:22:09;;;;;;;;;;;;;;;;;;5034674;28;20281;-72
2022/02/28 07:24:35;;;;;;;;;;;;;;;;;;5030078;28;20008;-74
2022/02/28 07:27:01;;;;;;;;;;;;;;;;;;5033548;28;19980;-73
2022/02/28 07:29:27;;;;;;;;;;;;;;;;;;5033628;28;20384;-74
2022/02/28 07:31:53;;;;;;;;;;;;;;;;;;5034350;28;19909;-74
2022/02/28 07:34:19;;;;;;;;;;;;;;;;;;5034003;28;19916;-73
2022/02/28 07:36:45;;;;;;;;;;;;;;;;;;5032977;28;19913;-75
2022/02/28 07:39:11;;;;;;;;;;;;;;;;;;5031704;28;20411;-73
2022/02/28 07:41:37;;;;;;;;;;;;;;;;;;5032183;28;19909;-76
2022/02/28 07:44:03;;;;;;;;;;;;;;;;;;5032128;28;19929;-73
2022/02/28 07:46:29;;;;;;;;;;;;;;;;;;5032915;28;20333;-74
2022/02/28 07:48:55;;;;;;;;;;;;;;;;;;5033241;28;20008;-74
2022/02/28 07:51:21;;;;;;;;;;;;;;;;;;5033761;28;19963;-72
2022/02/28 07:53:47;;;;;;;;;;;;;;;;;;5034000;28;19914;-72
2022/02/28 07:56:13;;;;;;;;;;;;;;;;;;5015498;28;19916;-71
2022/02/28 07:58:39;;;;;;;;;;;;;;;;;;5015511;28;19921;-74
2022/02/28 08:01:05;;;;;;;;;;;;;;;;;;5032148;28;19917;-71
2022/02/28 08:03:31;;;;;;;;;;;;;;;;;;5031740;28;19941;-70
2022/02/28 08:05:57;;;;;;;;;;;;;;;;;;5013156;28;20428;-71
2022/02/28 08:08:24;;;;;;;;;;;;;;;;;;5032970;28;19916;-71
2022/02/28 08:10:50;;;;;;;;;;;;;;;;;;5014753;28;19917;-74
2022/02/28 08:13:16;;;;;;;;;;;;;;;;;;5033418;28;19916;-72
2022/02/28 08:15:42;;;;;;;;;;;;;;;;;;5015194;28;19910;-73
2022/02/28 08:18:09;;;;;;;;;;;;;;;;;;5032957;28;19924;-73
2022/02/28 08:20:35;;;;;;;;;;;;;;;;;;5033098;28;19910;-74
2022/02/28 08:23:01;;;;;;;;;;;;;;;;;;5030818;28;20312;-74
2022/02/28 08:25:27;;;;;;;;;;;;;;;;;;5031124;28;19952;-72
2022/02/28 08:27:53;;;;;;;;;;;;;;;;;;5031372;28;19921;-73
2022/02/28 08:30:19;;;;;;;;;;;;;;;;;;5032118;28;19909;-74
2022/02/28 08:32:45;;;;;;;;;;;;;;;;;;5032508;28;19959;-77
2022/02/28 08:35:11;;;;;;;;;;;;;;;;;;5014778;28;20362;-73
2022/02/28 08:37:37;;;;;;;;;;;;;;;;;;5032719;28;19931;-75
2022/02/28 08:40:03;;;;;;;;;;;;;;;;;;5032893;28;19925;-74
2022/02/28 08:42:29;;;;;;;;;;;;;;;;;;5040058;28;19999;-72
2022/02/28 08:44:55;;;;;;;;;;;;;;;;;;5071845;28;19974;-74
2022/02/28 08:47:21;;;;;;;;;;;;;;;;;;5038966;28;20368;-73
2022/02/28 08:49:47;;;;;;;;;;;;;;;;;;5034689;28;20330;-73
2022/02/28 08:52:13;;;;;;;;;;;;;;;;;;5052857;28;19909;-74
2022/02/28 08:54:39;;;;;;;;;;;;;;;;;;5052192;28;20384;-73
2022/02/28 08:57:05;;;;;;;;;;;;;;;;;;5050517;28;19909;-74
2022/02/28 08:59:34;;;;;;;;;;;;;;;;;;5052081;28;19923;-74
2022/02/28 09:02:00;;;;;;;;;;;;;;;;;;5068213;28;19915;-72
2022/02/28 09:04:26;;;;;;;;;;;;;;;;;;5051321;28;19916;-73
2022/02/28 09:06:53;;;;;;;;;;;;;;;;;;5052274;28;19909;-71
2022/02/28 09:09:19;;;;;;;;;;;;;;;;;;5048838;28;19999;-71
2022/02/28 09:11:45;;;;;;;;;;;;;;;;;;5050882;28;19909;-75
2022/02/28 09:14:11;;;;;;;;;;;;;;;;;;5050576;28;19916;-72
2022/02/28 09:16:37;;;;;;;;;;;;;;;;;;5035838;28;20357;-74
2022/02/28 09:19:03;;;;;;;;;;;;;;;;;;5043521;28;19954;-74
2022/02/28 09:21:29;;;;;;;;;;;;;;;;;;5036629;28;20238;-71
2022/02/28 09:23:55;;;;;;;;;;;;;;;;;;5038382;28;19921;-73
2022/02/28 09:26:21;;;;;;;;;;;;;;;;;;5038045;28;19949;-73
2022/02/28 09:28:47;;;;;;;;;;;;;;;;;;5054435;28;19913;-72
2022/02/28 09:31:13;;;;;;;;;;;;;;;;;;5055778;28;20388;-71
2022/02/28 09:33:39;;;;;;;;;;;;;;;;;;5054597;28;20288;-72
2022/02/28 09:36:07;;;;;;;;;;;;;;;;;;5055599;28;19913;-73
2022/02/28 09:38:33;;;;;;;;;;;;;;;;;;5054854;28;19913;-72
2022/02/28 09:40:59;;;;;;;;;;;;;;;;;;5034274;28;19909;-73
2022/02/28 09:43:25;;;;;;;;;;;;;;;;;;5043246;28;20365;-73
2022/02/28 09:45:51;;;;;;;;;;;;;;;;;;5017719;28;19917;-73
2022/02/28 09:48:17;;;;;;;;;;;;;;;;;;5035537;28;19956;-73
2022/02/28 09:50:43;;;;;;;;;;;;;;;;;;5018329;28;19953;-73
2022/02/28 09:53:09;;;;;;;;;;;;;;;;;;5035924;28;19915;-73
2022/02/28 09:55:35;;;;;;;;;;;;;;;;;;5016505;28;19913;-75
2022/02/28 09:58:01;;;;;;;;;;;;;;;;;;5015625;28;19913;-74
2022/02/28 10:00:27;;;;;;;;;;;;;;;;;;5017770;28;19909;-73
2022/02/28 10:02:57;;;;;;;;;;;;;;;;;;5016207;28;20008;-73
2022/02/28 10:05:23;;;;;;;;;;;;;;;;;;5034717;28;19917;-73
2022/02/28 10:07:49;;;;;;;;;;;;;;;;;;5036068;28;19960;-73
2022/02/28 10:10:15;;;;;;;;;;;;;;;;;;5034462;28;19909;-73
2022/02/28 10:12:41;;;;;;;;;;;;;;;;;;5018043;28;20274;-73
2022/02/28 10:15:08;;;;;;;;;;;;;;;;;;5017598;28;19909;-74
2022/02/28 10:17:34;;;;;;;;;;;;;;;;;;5017819;28;19909;-76
2022/02/28 10:20:01;;;;;;;;;;;;;;;;;;5035296;28;19998;-78
2022/02/28 10:22:27;;;;;;;;;;;;;;;;;;5017394;28;19944;-74
2022/02/28 10:24:53;;;;;;;;;;;;;;;;;;5035567;28;20381;-80
2022/02/28 10:27:19;;;;;;;;;;;;;;;;;;5017766;28;19952;-78
2022/02/28 10:29:45;;;;;;;;;;;;;;;;;;5016354;28;19909;-77
2022/02/28 10:32:11;;;;;;;;;;;;;;;;;;5035189;28;19909;-72
2022/02/28 10:37:21;;;;;;;;;;;;;;;;;;5028492;28;19963;-74
2022/02/28 10:39:47;;;;;;;;;;;;;;;;;;5033545;28;19941;-79
2022/02/28 10:42:16;;;;;;;;;;;;;;;;;;5016658;28;19932;-75
2022/02/28 10:44:42;;;;;;;;;;;;;;;;;;5016983;28;19921;-75
2022/02/28 10:47:08;;;;;;;;;;;;;;;;;;5032951;28;19913;-75
2022/02/28 10:49:34;;;;;;;;;;;;;;;;;;5033393;28;19909;-76
2022/02/28 10:52:00;;;;;;;;;;;;;;;;;;5015111;28;19964;-77
2022/02/28 10:54:27;;;;;;;;;;;;;;;;;;5016292;28;19917;-75
2022/02/28 10:56:53;;;;;;;;;;;;;;;;;;5030827;28;19909;-76
2022/02/28 10:59:19;;;;;;;;;;;;;;;;;;5016612;28;19913;-76
2022/02/28 11:01:45;;;;;;;;;;;;;;;;;;5034568;28;19962;-77
2022/02/28 11:04:11;;;;;;;;;;;;;;;;;;5034231;28;20373;-77
2022/02/28 11:06:37;;;;;;;;;;;;;;;;;;5034255;28;20362;-82
2022/02/28 11:09:03;;;;;;;;;;;;;;;;;;5034876;28;20319;-73
2022/02/28 11:11:29;;;;;;;;;;;;;;;;;;5030613;28;19909;-74
2022/02/28 11:13:55;;;;;;;;;;;;;;;;;;5034607;28;19962;-72
2022/02/28 11:16:21;;;;;;;;;;;;;;;;;;5034609;28;19921;-72
2022/02/28 11:18:50;;;;;;;;;;;;;;;;;;5034279;28;19913;-73
2022/02/28 11:21:16;;;;;;;;;;;;;;;;;;5018453;28;19914;-73
2022/02/28 11:23:43;;;;;;;;;;;;;;;;;;5027072;28;20004;-72
2022/02/28 11:26:09;;;;;;;;;;;;;;;;;;5032902;28;19913;-73
2022/02/28 11:28:35;;;;;;;;;;;;;;;;;;5034347;28;19995;-72
2022/02/28 11:31:01;;;;;;;;;;;;;;;;;;5034109;28;19908;-73
2022/02/28 11:33:27;;;;;;;;;;;;;;;;;;5032584;28;19917;-73
2022/02/28 11:35:53;;;;;;;;;;;;;;;;;;5032958;28;19928;-73
2022/02/28 11:38:19;;;;;;;;;;;;;;;;;;5033562;28;19955;-73
2022/02/28 11:40:45;;;;;;;;;;;;;;;;;;5032158;28;20309;-73
2022/02/28 11:43:11;;;;;;;;;;;;;;;;;;5031824;28;19994;-72
2022/02/28 11:45:37;;;;;;;;;;;;;;;;;;5053598;28;20365;-73
2022/02/28 11:48:03;;;;;;;;;;;;;;;;;;5052185;28;19909;-73
2022/02/28 11:50:29;;;;;;;;;;;;;;;;;;5051402;28;19909;-71
2022/02/28 11:52:55;;;;;;;;;;;;;;;;;;5052010;28;19909;-74
2022/02/28 11:55:23;;;;;;;;;;;;;;;;;;5051586;28;20391;-73
2022/02/28 11:57:49;;;;;;;;;;;;;;;;;;5053781;28;19936;-74
2022/02/28 12:00:15;;;;;;;;;;;;;;;;;;5052099;28;19916;-72
2022/02/28 12:02:41;;;;;;;;;;;;;;;;;;5053619;28;20361;-72
2022/02/28 12:05:07;;;;;;;;;;;;;;;;;;5053204;28;19924;-73
2022/02/28 12:07:39;;;;;;;;;;;;;;;;;;5054092;28;19962;-71
2022/02/28 12:10:05;;;;;;;;;;;;;;;;;;5054021;28;20439;-72
2022/02/28 12:12:34;;;;;;;;;;;;;;;;;;5052616;28;19909;-71
2022/02/28 12:15:00;;;;;;;;;;;;;;;;;;5052165;28;20609;-71
2022/02/28 12:17:32;;;;;;;;;;;;;;;;;;5053860;28;19909;-75
2022/02/28 12:19:58;;;;;;;;;;;;;;;;;;5053792;28;20008;-73
2022/02/28 12:22:24;;;;;;;;;;;;;;;;;;5051885;28;19955;-73
2022/02/28 12:24:50;;;;;;;;;;;;;;;;;;5052330;28;19916;-73
2022/02/28 12:27:16;;;;;;;;;;;;;;;;;;5054086;28;20361;-73
2022/02/28 12:29:42;;;;;;;;;;;;;;;;;;5051930;28;20282;-73
2022/02/28 12:32:08;;;;;;;;;;;;;;;;;;5052255;28;19958;-74
2022/02/28 12:34:34;;;;;;;;;;;;;;;;;;5053428;28;19917;-74
2022/02/28 12:37:00;;;;;;;;;;;;;;;;;;5053345;28;19916;-72
2022/02/28 12:39:26;;;;;;;;;;;;;;;;;;5052264;28;19908;-72
2022/02/28 12:41:56;;;;;;;;;;;;;;;;;;5053479;28;19991;-72
2022/02/28 12:44:22;;;;;;;;;;;;;;;;;;5033788;28;19928;-72
2022/02/28 12:46:48;;;;;;;;;;;;;;;;;;5015869;28;19909;-72
2022/02/28 12:49:14;;;;;;;;;;;;;;;;;;5033546;28;20266;-72
2022/02/28 12:51:40;;;;;;;;;;;;;;;;;;5032889;28;19909;-73
2022/02/28 12:54:06;;;;;;;;;;;;;;;;;;5015955;28;19909;-72
2022/02/28 12:56:32;;;;;;;;;;;;;;;;;;5033501;28;19910;-74
2022/02/28 12:58:58;;;;;;;;;;;;;;;;;;5033178;28;19913;-75
2022/02/28 13:01:24;;;;;;;;;;;;;;;;;;5033249;28;19909;-73
2022/02/28 13:03:53;;;;;;;;;;;;;;;;;;5015474;28;19910;-70
2022/02/28 13:06:19;;;;;;;;;;;;;;;;;;5015723;28;19923;-71
2022/02/28 13:08:45;;;;;;;;;;;;;;;;;;5015055;28;19999;-74
2022/02/28 13:11:11;;;;;;;;;;;;;;;;;;5015336;28;19909;-74
2022/02/28 13:13:37;;;;;;;;;;;;;;;;;;5033374;28;19932;-73
2022/02/28 13:16:03;;;;;;;;;;;;;;;;;;5033435;28;19916;-74
2022/02/28 13:18:29;;;;;;;;;;;;;;;;;;5015165;28;19955;-72
2022/02/28 13:20:55;;;;;;;;;;;;;;;;;;5015510;28;19920;-74
2022/02/28 13:23:21;;;;;;;;;;;;;;;;;;5033194;28;19951;-73
2022/02/28 13:25:48;;;;;;;;;;;;;;;;;;5015178;28;20006;-73
2022/02/28 13:28:13;;;;;;;;;;;;;;;;;;5033346;28;20381;-74
2022/02/28 13:30:39;;;;;;;;;;;;;;;;;;5015610;28;20365;-71
2022/02/28 13:33:05;;;;;;;;;;;;;;;;;;5032976;28;19909;-71
2022/02/28 13:35:31;;;;;;;;;;;;;;;;;;5033261;28;20349;-71
2022/02/28 13:37:58;;;;;;;;;;;;;;;;;;5015466;28;19909;-71
2022/02/28 13:40:24;;;;;;;;;;;;;;;;;;5032605;28;19956;-72
2022/02/28 13:42:50;;;;;;;;;;;;;;;;;;5032886;28;19925;-72
2022/02/28 13:45:21;;;;;;;;;;;;;;;;;;5015267;28;20015;-72
2022/02/28 13:47:49;;;;;;;;;;;;;;;;;;5032732;28;19909;-74
2022/02/28 13:50:15;;;;;;;;;;;;;;;;;;5028974;28;19909;-74
2022/02/28 13:52:41;;;;;;;;;;;;;;;;;;5032822;28;19909;-70
2022/02/28 13:55:07;;;;;;;;;;;;;;;;;;5032812;28;19991;-70
2022/02/28 13:57:34;;;;;;;;;;;;;;;;;;5015405;28;19943;-70
2022/02/28 14:00:00;;;;;;;;;;;;;;;;;;5015227;28;20374;-70
2022/02/28 14:02:26;;;;;;;;;;;;;;;;;;5032549;28;20007;-70
2022/02/28 14:04:52;;;;;;;;;;;;;;;;;;5035861;28;20270;-69
2022/02/28 14:07:18;;;;;;;;;;;;;;;;;;5017960;28;20065;-69
2022/02/28 14:09:44;;;;;;;;;;;;;;;;;;5036126;28;19955;-70
2022/02/28 14:12:10;;;;;;;;;;;;;;;;;;5018229;28;20281;-70
2022/02/28 14:14:36;;;;;;;;;;;;;;;;;;5018006;28;19909;-70
2022/02/28 14:17:03;;;;;;;;;;;;;;;;;;5036263;28;19909;-72
2022/02/28 14:19:29;;;;;;;;;;;;;;;;;;5018421;28;20000;-69
2022/02/28 14:21:55;;;;;;;;;;;;;;;;;;5018067;28;20319;-69
2022/02/28 14:24:21;;;;;;;;;;;;;;;;;;5036236;28;19917;-69
2022/02/28 14:26:47;;;;;;;;;;;;;;;;;;5018550;28;19936;-70
2022/02/28 14:29:13;;;;;;;;;;;;;;;;;;5035880;28;20322;-70
2022/02/28 14:31:39;;;;;;;;;;;;;;;;;;5018427;28;19909;-70
2022/02/28 14:34:05;;;;;;;;;;;;;;;;;;5036185;28;19913;-69
2022/02/28 14:36:31;;;;;;;;;;;;;;;;;;5035935;28;19909;-70
2022/02/28 14:38:57;;;;;;;;;;;;;;;;;;5018285;28;19952;-71
2022/02/28 14:41:23;;;;;;;;;;;;;;;;;;5018181;28;20388;-70
2022/02/28 14:43:49;;;;;;;;;;;;;;;;;;5035397;28;19921;-70
2022/02/28 14:46:16;;;;;;;;;;;;;;;;;;5036157;28;20321;-70
2022/02/28 14:48:42;;;;;;;;;;;;;;;;;;5018193;28;20319;-68
2022/02/28 14:51:08;;;;;;;;;;;;;;;;;;5035529;28;19913;-68
2022/02/28 14:53:34;;;;;;;;;;;;;;;;;;5018159;28;19932;-69
2022/02/28 14:56:00;;;;;;;;;;;;;;;;;;5035844;28;19917;-69
2022/02/28 14:58:26;;;;;;;;;;;;;;;;;;5035296;28;19999;-71
2022/02/28 15:00:52;;;;;;;;;;;;;;;;;;5036284;28;19996;-69
2022/02/28 15:03:19;;;;;;;;;;;;;;;;;;5035620;28;19913;-71
2022/02/28 15:05:45;;;;;;;;;;;;;;;;;;5035162;28;20395;-69
2022/02/28 15:08:12;;;;;;;;;;;;;;;;;;5017858;28;19992;-69
2022/02/28 15:10:43;;;;;;;;;;;;;;;;;;5035353;28;19909;-69
2022/02/28 15:13:08;;;;;;;;;;;;;;;;;;5035806;28;19913;-70
2022/02/28 15:15:34;;;;;;;;;;;;;;;;;;5035384;28;19932;-69
2022/02/28 15:18:00;;;;;;;;;;;;;;;;;;5035036;28;20009;-70
2022/02/28 15:20:26;;;;;;;;;;;;;;;;;;5035323;28;19910;-69
2022/02/28 15:22:52;;;;;;;;;;;;;;;;;;5017432;28;20285;-69
2022/02/28 15:25:18;;;;;;;;;;;;;;;;;;5016995;28;20011;-69
2022/02/28 15:27:45;;;;;;;;;;;;;;;;;;5017437;28;19909;-70
2022/02/28 15:30:11;;;;;;;;;;;;;;;;;;5035078;28;19909;-69
2022/02/28 15:32:37;;;;;;;;;;;;;;;;;;5034803;28;19909;-69
2022/02/28 15:35:03;;;;;;;;;;;;;;;;;;5035009;28;19932;-70
2022/02/28 15:37:29;;;;;;;;;;;;;;;;;;5035011;28;19913;-70
2022/02/28 15:39:55;;;;;;;;;;;;;;;;;;5034599;28;19932;-70
2022/02/28 15:42:20;;;;;;;;;;;;;;;;;;5034766;28;19910;-70
2022/02/28 15:44:47;;;;;;;;;;;;;;;;;;5034711;28;20353;-70
2022/02/28 15:47:13;;;;;;;;;;;;;;;;;;5016642;28;19913;-69
2022/02/28 15:49:39;;;;;;;;;;;;;;;;;;5016993;28;19959;-71
2022/02/28 15:52:06;;;;;;;;;;;;;;;;;;5035180;28;20003;-70
2022/02/28 15:54:32;;;;;;;;;;;;;;;;;;5034337;28;19932;-70
2022/02/28 15:56:58;;;;;;;;;;;;;;;;;;5034662;28;20290;-69
2022/02/28 15:59:24;;;;;;;;;;;;;;;;;;5034550;28;19916;-69
2022/02/28 16:01:50;;;;;;;;;;;;;;;;;;5034076;28;19909;-69
2022/02/28 16:04:16;;;;;;;;;;;;;;;;;;5034370;28;19935;-69
2022/02/28 16:06:42;;;;;;;;;;;;;;;;;;5034281;28;19910;-70
2022/02/28 16:09:08;;;;;;;;;;;;;;;;;;5016713;28;19913;-70
2022/02/28 16:11:34;;;;;;;;;;;;;;;;;;5016538;28;19967;-70
2022/02/28 16:14:00;;;;;;;;;;;;;;;;;;5033877;28;19909;-69
2022/02/28 16:16:26;;;;;;;;;;;;;;;;;;5034271;28;19909;-70
2022/02/28 16:18:54;;;;;;;;;;;;;;;;;;5034180;28;19960;-74
2022/02/28 16:21:20;;;;;;;;;;;;;;;;;;5033788;28;19932;-71
2022/02/28 16:23:46;;;;;;;;;;;;;;;;;;5031815;28;20345;-70
2022/02/28 16:26:12;;;;;;;;;;;;;;;;;;5025681;28;19909;-70
2022/02/28 16:28:38;;;;;;;;;;;;;;;;;;5015189;28;19959;-70
2022/02/28 16:31:04;;;;;;;;;;;;;;;;;;5033720;28;19952;-70
2022/02/28 16:33:30;;;;;;;;;;;;;;;;;;5015812;28;19967;-71
2022/02/28 16:35:56;;;;;;;;;;;;;;;;;;5015563;28;19910;-70
2022/02/28 16:38:22;;;;;;;;;;;;;;;;;;5033614;28;19909;-71
2022/02/28 16:40:48;;;;;;;;;;;;;;;;;;5033332;28;19909;-70